createdAt,value
2018-08-09T00:00:50.272Z,3.33
2018-08-09T00:03:18.827Z,3.30
2018-08-09T00:05:47.449Z,3.63
2018-08-09T00:08:16.075Z,3.70
2018-08-09T00:10:44.601Z,3.17
2018-08-09T00:13:13.156Z,3.20
2018-08-09T00:15:41.736Z,3.03
2018-08-09T00:18:10.305Z,3.37
2018-08-09T00:20:38.840Z,3.60
2018-08-09T00:23:07.387Z,3.37
2018-08-09T00:25:35.935Z,3.50
2018-08-09T00:28:04.539Z,3.40
2018-08-09T00:30:33.089Z,3.40
2018-08-09T00:33:01.646Z,3.57
2018-08-09T00:35:30.463Z,3.20
2018-08-09T00:37:59.049Z,3.03
2018-08-09T00:40:27.718Z,3.43
2018-08-09T00:42:56.303Z,3.00
2018-08-09T00:45:24.842Z,3.30
2018-08-09T00:47:53.585Z,3.77
2018-08-09T00:50:22.259Z,3.73
2018-08-09T00:52:50.812Z,3.10
2018-08-09T00:55:19.356Z,3.60
2018-08-09T00:57:47.938Z,3.40
2018-08-09T01:00:16.559Z,3.37
2018-08-09T01:02:45.235Z,3.77
2018-08-09T01:05:13.743Z,3.40
2018-08-09T01:07:42.434Z,3.73
2018-08-09T01:10:11.052Z,3.57
2018-08-09T01:12:39.607Z,3.57
2018-08-09T01:15:08.178Z,3.37
2018-08-09T01:17:36.753Z,3.23
2018-08-09T01:20:06.112Z,3.17
2018-08-09T01:22:34.740Z,3.13
2018-08-09T01:25:03.275Z,3.60
2018-08-09T01:27:31.779Z,3.27
2018-08-09T01:30:00.323Z,3.57
2018-08-09T01:32:28.925Z,3.13
2018-08-09T01:34:57.419Z,4.00
2018-08-09T01:37:25.909Z,4.30
2018-08-09T01:39:54.496Z,3.87
2018-08-09T01:42:34.440Z,4.00
2018-08-09T01:45:03.064Z,3.60
2018-08-09T01:47:31.558Z,4.00
2018-08-09T01:50:00.039Z,3.70
2018-08-09T01:52:28.489Z,3.47
2018-08-09T01:54:57.011Z,3.40
2018-08-09T01:57:25.536Z,3.40
2018-08-09T01:59:54.066Z,3.10
2018-08-09T02:02:22.570Z,3.70
2018-08-09T02:04:51.111Z,3.30
2018-08-09T02:07:19.522Z,3.50
2018-08-09T02:09:48.046Z,3.50
2018-08-09T02:12:16.517Z,3.10
2018-08-09T02:14:45.028Z,3.33
2018-08-09T02:17:13.490Z,3.50
2018-08-09T02:19:42.073Z,3.60
2018-08-09T02:22:10.542Z,3.47
2018-08-09T02:24:39.058Z,3.63
2018-08-09T02:27:07.562Z,3.87
2018-08-09T02:29:36.134Z,3.63
2018-08-09T02:32:04.586Z,3.60
2018-08-09T02:34:33.048Z,3.53
2018-08-09T02:37:01.709Z,3.33
2018-08-09T02:39:30.251Z,3.50
2018-08-09T02:41:58.772Z,3.67
2018-08-09T02:44:27.268Z,3.87
2018-08-09T02:46:55.781Z,3.93
2018-08-09T02:49:24.310Z,3.53
2018-08-09T02:51:52.829Z,3.70
2018-08-09T02:54:21.342Z,3.23
2018-08-09T02:56:49.807Z,3.87
2018-08-09T02:59:18.346Z,3.50
2018-08-09T03:01:46.817Z,3.23
2018-08-09T03:04:15.350Z,3.43
2018-08-09T03:06:43.887Z,3.33
2018-08-09T03:09:13.472Z,3.80
2018-08-09T03:11:42.993Z,3.63
2018-08-09T03:14:11.545Z,4.00
2018-08-09T03:16:40.032Z,3.70
2018-08-09T03:19:08.542Z,3.47
2018-08-09T03:21:37.031Z,3.30
2018-08-09T03:24:05.617Z,3.73
2018-08-09T03:26:34.044Z,3.60
2018-08-09T03:29:02.646Z,3.90
2018-08-09T03:31:31.078Z,3.60
2018-08-09T03:33:59.794Z,3.47
2018-08-09T03:36:28.279Z,3.43
2018-08-09T03:38:56.774Z,3.67
2018-08-09T03:41:25.286Z,3.40
2018-08-09T03:43:57.920Z,3.73
2018-08-09T03:46:26.515Z,3.50
2018-08-09T03:48:55.067Z,3.70
2018-08-09T03:51:23.708Z,4.07
2018-08-09T03:53:52.327Z,4.13
2018-08-09T03:56:20.865Z,3.73
2018-08-09T03:58:49.424Z,3.67
2018-08-09T04:01:18.009Z,3.90
2018-08-09T04:03:46.579Z,3.67
2018-08-09T04:06:15.109Z,4.20
2018-08-09T04:08:43.642Z,3.73
2018-08-09T04:11:12.211Z,3.90
2018-08-09T04:13:40.752Z,3.80
2018-08-09T04:16:09.224Z,4.03
2018-08-09T04:18:37.733Z,3.60
2018-08-09T04:21:06.236Z,3.90
2018-08-09T04:23:35.588Z,3.83
2018-08-09T04:26:04.136Z,3.83
2018-08-09T04:28:33.216Z,4.00
2018-08-09T04:31:01.710Z,3.83
2018-08-09T04:33:30.708Z,3.60
2018-08-09T04:35:59.231Z,3.60
2018-08-09T04:38:27.843Z,3.63
2018-08-09T04:40:56.412Z,3.30
2018-08-09T04:43:25.121Z,4.00
2018-08-09T04:45:53.639Z,3.70
2018-08-09T04:48:22.126Z,3.90
2018-08-09T04:50:50.789Z,3.90
2018-08-09T04:53:19.259Z,3.60
2018-08-09T04:55:47.754Z,3.23
2018-08-09T04:58:16.258Z,3.70
2018-08-09T05:00:44.734Z,4.10
2018-08-09T05:03:13.234Z,3.67
2018-08-09T05:05:41.798Z,4.30
2018-08-09T05:08:10.302Z,4.70
2018-08-09T05:10:38.817Z,4.70
2018-08-09T05:13:07.346Z,4.70
2018-08-09T05:15:35.864Z,4.67
2018-08-09T05:18:04.672Z,4.73
2018-08-09T05:20:33.213Z,4.70
2018-08-09T05:23:01.733Z,4.83
2018-08-09T05:25:30.278Z,4.80
2018-08-09T05:27:58.853Z,4.43
2018-08-09T05:30:27.311Z,4.13
2018-08-09T05:32:55.881Z,5.35
2018-08-09T05:35:24.348Z,4.40
2018-08-09T05:37:52.891Z,4.43
2018-08-09T05:40:21.372Z,4.87
2018-08-09T05:42:49.856Z,4.70
2018-08-09T05:45:18.437Z,4.43
2018-08-09T05:47:46.857Z,4.73
2018-08-09T05:50:16.196Z,4.37
2018-08-09T05:52:44.976Z,4.47
2018-08-09T05:55:13.734Z,4.33
2018-08-09T05:57:42.409Z,4.67
2018-08-09T06:00:11.090Z,4.43
2018-08-09T06:02:39.592Z,4.40
2018-08-09T06:05:08.244Z,4.40
2018-08-09T06:07:37.151Z,4.10
2018-08-09T06:10:06.790Z,4.37
2018-08-09T06:12:35.916Z,4.03
2018-08-09T06:15:05.017Z,4.33
2018-08-09T06:17:33.491Z,4.20
2018-08-09T06:20:02.032Z,4.23
2018-08-09T06:22:30.554Z,3.30
2018-08-09T06:24:59.063Z,4.07
2018-08-09T06:27:27.622Z,3.93
2018-08-09T06:29:56.275Z,3.40
2018-08-09T06:32:24.876Z,3.33
2018-08-09T06:34:53.369Z,3.73
2018-08-09T06:37:21.814Z,3.60
2018-08-09T06:39:50.402Z,3.60
2018-08-09T06:42:19.082Z,3.70
2018-08-09T06:44:47.567Z,4.07
2018-08-09T06:47:16.241Z,3.30
2018-08-09T06:49:44.781Z,3.20
2018-08-09T06:52:13.307Z,3.63
2018-08-09T06:54:41.851Z,3.87
2018-08-09T06:57:10.307Z,3.47
2018-08-09T06:59:38.847Z,3.80
2018-08-09T07:02:07.375Z,3.47
2018-08-09T07:04:35.813Z,3.53
2018-08-09T07:07:05.794Z,3.07
2018-08-09T07:09:34.433Z,3.50
2018-08-09T07:12:03.674Z,3.43
2018-08-09T07:14:32.221Z,3.33
2018-08-09T07:17:00.955Z,3.40
2018-08-09T07:19:29.911Z,3.60
2018-08-09T07:21:58.984Z,3.27
2018-08-09T07:24:28.699Z,3.30
2018-08-09T07:26:57.155Z,3.23
2018-08-09T07:29:25.773Z,3.20
2018-08-09T07:31:54.284Z,3.70
2018-08-09T07:34:22.834Z,4.13
2018-08-09T07:36:51.345Z,3.97
2018-08-09T07:39:19.895Z,4.30
2018-08-09T07:41:48.357Z,3.83
2018-08-09T07:44:16.965Z,3.63
2018-08-09T07:46:45.474Z,3.73
2018-08-09T07:49:14.042Z,4.10
2018-08-09T07:51:42.569Z,4.00
2018-08-09T07:54:11.044Z,4.37
2018-08-09T07:56:39.496Z,3.90
2018-08-09T07:59:08.079Z,4.60
2018-08-09T08:01:36.535Z,4.23
2018-08-09T08:04:05.116Z,4.20
2018-08-09T08:06:33.734Z,4.30
2018-08-09T08:09:02.264Z,4.47
2018-08-09T08:11:30.714Z,4.80
2018-08-09T08:13:59.183Z,4.50
2018-08-09T08:16:27.644Z,4.00
2018-08-09T08:18:56.140Z,4.63
2018-08-09T08:21:24.696Z,4.90
2018-08-09T08:23:53.300Z,4.47
2018-08-09T08:26:21.873Z,4.97
2018-08-09T08:28:50.362Z,4.03
2018-08-09T08:31:18.844Z,4.70
2018-08-09T08:33:47.382Z,4.97
2018-08-09T08:36:15.918Z,4.20
2018-08-09T08:38:44.520Z,3.90
2018-08-09T08:41:13.102Z,5.40
2018-08-09T08:43:43.694Z,4.00
2018-08-09T08:46:12.203Z,4.33
2018-08-09T08:48:40.681Z,4.57
2018-08-09T08:51:09.244Z,4.90
2018-08-09T08:53:37.819Z,4.23
2018-08-09T08:56:06.523Z,4.80
2018-08-09T08:58:35.068Z,4.20
2018-08-09T09:01:06.517Z,4.70
2018-08-09T09:03:34.994Z,4.17
2018-08-09T09:06:03.628Z,3.83
2018-08-09T09:08:32.164Z,4.67
2018-08-09T09:11:00.807Z,4.40
2018-08-09T09:13:29.322Z,4.37
2018-08-09T09:15:57.863Z,5.00
2018-08-09T09:18:26.374Z,4.60
2018-08-09T09:20:54.962Z,4.20
2018-08-09T09:23:23.446Z,4.10
2018-08-09T09:25:51.974Z,4.40
2018-08-09T09:28:20.511Z,3.87
2018-08-09T09:30:49.107Z,4.33
2018-08-09T09:33:18.062Z,3.87
2018-08-09T09:35:46.754Z,4.07
2018-08-09T09:38:15.307Z,3.90
2018-08-09T09:40:43.918Z,3.63
2018-08-09T09:43:12.432Z,4.20
2018-08-09T09:45:40.982Z,4.57
2018-08-09T09:48:09.482Z,4.00
2018-08-09T09:50:38.039Z,4.00
2018-08-09T09:53:06.624Z,4.20
2018-08-09T09:55:35.148Z,4.83
2018-08-09T09:58:03.678Z,5.30
2018-08-09T10:00:37.682Z,4.47
2018-08-09T10:03:06.607Z,4.40
2018-08-09T10:05:37.583Z,5.10
2018-08-09T10:08:06.151Z,4.60
2018-08-09T10:10:34.723Z,4.43
2018-08-09T10:13:03.297Z,4.23
2018-08-09T10:15:31.844Z,4.57
2018-08-09T10:18:00.395Z,4.67
2018-08-09T10:20:29.014Z,4.43
2018-08-09T10:22:57.597Z,4.80
2018-08-09T10:25:26.178Z,4.60
2018-08-09T10:27:54.732Z,4.40
2018-08-09T10:30:23.486Z,4.20
2018-08-09T10:32:52.043Z,4.80
2018-08-09T10:35:20.584Z,4.30
2018-08-09T10:37:49.231Z,4.90
2018-08-09T10:40:17.755Z,5.07
2018-08-09T10:42:46.300Z,5.07
2018-08-09T10:45:14.972Z,4.90
2018-08-09T10:47:43.706Z,5.47
2018-08-09T10:50:12.292Z,4.67
2018-08-09T10:52:40.947Z,5.53
2018-08-09T10:55:09.634Z,4.90
2018-08-09T10:57:38.433Z,5.43
2018-08-09T11:00:09.173Z,4.90
2018-08-09T11:02:37.789Z,4.67
2018-08-09T11:05:06.817Z,5.40
2018-08-09T11:07:35.472Z,4.97
2018-08-09T11:10:04.695Z,5.67
2018-08-09T11:12:33.172Z,5.70
2018-08-09T11:15:01.718Z,4.90
2018-08-09T11:17:30.452Z,4.80
2018-08-09T11:19:59.061Z,6.30
2018-08-09T11:22:28.067Z,5.00
2018-08-09T11:24:56.634Z,5.10
2018-08-09T11:27:25.137Z,5.40
2018-08-09T11:29:53.756Z,5.23
2018-08-09T11:32:22.567Z,5.10
2018-08-09T11:34:51.195Z,5.13
2018-08-09T11:37:19.674Z,4.90
2018-08-09T11:39:48.214Z,10.23
2018-08-09T11:42:17.181Z,5.47
2018-08-09T11:44:45.737Z,5.30
2018-08-09T11:47:14.170Z,5.27
2018-08-09T11:49:42.845Z,5.67
2018-08-09T11:52:11.368Z,5.80
2018-08-09T11:54:39.873Z,5.57
2018-08-09T11:57:08.425Z,6.17
2018-08-09T11:59:36.912Z,6.13
2018-08-09T12:02:05.533Z,6.47
2018-08-09T12:04:34.182Z,5.90
2018-08-09T12:07:02.900Z,5.87
2018-08-09T12:09:31.493Z,6.47
2018-08-09T12:11:59.988Z,6.17
2018-08-09T12:14:28.451Z,6.30
2018-08-09T12:16:57.068Z,5.57
2018-08-09T12:19:25.759Z,5.90
2018-08-09T12:21:54.360Z,5.63
2018-08-09T12:24:23.792Z,5.80
2018-08-09T12:26:52.531Z,5.60
2018-08-09T12:29:21.176Z,5.60
2018-08-09T12:31:49.651Z,6.10
2018-08-09T12:34:18.662Z,5.05
2018-08-09T12:36:47.284Z,5.40
2018-08-09T12:39:16.419Z,6.22
2018-08-09T12:41:44.998Z,5.72
2018-08-09T12:44:13.647Z,5.47
2018-08-09T12:46:42.422Z,5.85
2018-08-09T12:49:11.079Z,6.17
2018-08-09T12:51:39.585Z,5.33
2018-08-09T12:54:08.411Z,6.50
2018-08-09T12:56:37.967Z,5.60
2018-08-09T12:59:07.039Z,5.83
2018-08-09T13:01:35.750Z,6.15
2018-08-09T13:04:04.943Z,6.40
2018-08-09T13:06:33.465Z,5.62
2018-08-09T13:09:02.155Z,6.05
2018-08-09T13:11:30.853Z,6.12
2018-08-09T13:13:59.381Z,6.17
2018-08-09T13:16:27.951Z,5.58
2018-08-09T13:18:56.662Z,5.92
2018-08-09T13:21:25.275Z,6.08
2018-08-09T13:23:53.847Z,6.25
2018-08-09T13:26:23.159Z,5.55
2018-08-09T13:28:53.841Z,5.58
2018-08-09T13:31:22.353Z,5.72
2018-08-09T13:33:51.017Z,6.12
2018-08-09T13:36:19.575Z,5.90
2018-08-09T13:38:48.162Z,6.75
2018-08-09T13:41:16.645Z,6.17
2018-08-09T13:43:45.194Z,6.47
2018-08-09T13:46:13.766Z,7.58
2018-08-09T13:48:42.298Z,6.20
2018-08-09T13:51:10.750Z,6.17
2018-08-09T13:53:39.330Z,5.87
2018-08-09T13:56:07.926Z,5.60
2018-08-09T13:58:36.527Z,5.97
2018-08-09T14:01:05.088Z,6.12
2018-08-09T14:03:33.575Z,5.83
2018-08-09T14:06:02.122Z,6.12
2018-08-09T14:08:31.237Z,5.70
2018-08-09T14:10:59.780Z,5.78
2018-08-09T14:13:29.337Z,5.58
2018-08-09T14:15:57.807Z,5.80
2018-08-09T14:18:26.338Z,6.60
2018-08-09T14:20:54.923Z,5.87
2018-08-09T14:23:23.482Z,5.92
2018-08-09T14:25:52.768Z,6.28
2018-08-09T14:28:21.361Z,6.25
2018-08-09T14:30:50.009Z,5.97
2018-08-09T14:33:18.637Z,6.12
2018-08-09T14:35:47.294Z,6.47
2018-08-09T14:38:15.867Z,5.75
2018-08-09T14:40:44.569Z,5.42
2018-08-09T14:43:13.146Z,5.72
2018-08-09T14:45:41.698Z,6.35
2018-08-09T14:48:10.290Z,6.17
2018-08-09T14:50:38.795Z,5.87
2018-08-09T14:53:07.308Z,6.35
2018-08-09T14:55:35.924Z,6.33
2018-08-09T14:58:04.652Z,5.75
2018-08-09T15:00:33.208Z,5.80
2018-08-09T15:03:01.766Z,5.70
2018-08-09T15:05:30.337Z,6.55
2018-08-09T15:07:58.869Z,5.95
2018-08-09T15:10:27.402Z,5.83
2018-08-09T15:12:56.006Z,5.87
2018-08-09T15:15:24.514Z,5.92
2018-08-09T15:17:53.456Z,6.70
2018-08-09T15:20:22.014Z,5.80
2018-08-09T15:22:50.529Z,6.20
2018-08-09T15:25:19.044Z,6.50
2018-08-09T15:27:47.606Z,6.00
2018-08-09T15:30:17.806Z,6.40
2018-08-09T15:32:46.586Z,6.22
2018-08-09T15:35:15.217Z,5.97
2018-08-09T15:37:43.911Z,6.40
2018-08-09T15:40:12.975Z,6.08
2018-08-09T15:42:41.543Z,6.03
2018-08-09T15:45:12.685Z,5.65
2018-08-09T15:47:41.860Z,6.35
2018-08-09T15:50:15.770Z,6.60
2018-08-09T15:52:44.483Z,5.90
2018-08-09T15:55:13.996Z,6.60
2018-08-09T15:57:42.529Z,6.10
2018-08-09T16:00:14.223Z,6.40
2018-08-09T16:02:42.819Z,6.37
2018-08-09T16:05:11.375Z,5.70
2018-08-09T16:07:39.884Z,6.28
2018-08-09T16:10:11.144Z,5.92
2018-08-09T16:12:39.899Z,5.97
2018-08-09T16:15:10.981Z,6.30
2018-08-09T16:17:39.710Z,6.17
2018-08-09T16:20:09.864Z,5.90
2018-08-09T16:22:38.749Z,5.70
2018-08-09T16:25:09.801Z,6.70
2018-08-09T16:27:38.555Z,6.42
2018-08-09T16:30:17.899Z,6.12
2018-08-09T16:32:46.598Z,6.40
2018-08-09T16:35:15.270Z,6.53
2018-08-09T16:37:44.548Z,6.78
2018-08-09T16:40:16.415Z,5.87
2018-08-09T16:42:45.262Z,5.97
2018-08-09T16:45:16.393Z,6.47
2018-08-09T16:47:45.811Z,6.33
2018-08-09T16:50:18.037Z,5.83
2018-08-09T16:52:48.360Z,6.33
2018-08-09T16:55:17.751Z,6.28
2018-08-09T16:57:46.404Z,6.20
2018-08-09T17:00:16.530Z,6.30
2018-08-09T17:02:46.420Z,6.15
2018-08-09T17:05:19.315Z,6.60
2018-08-09T17:07:48.785Z,5.60
2018-08-09T17:10:20.352Z,5.93
2018-08-09T17:12:48.985Z,5.57
2018-08-09T17:15:27.208Z,5.40
2018-08-09T17:17:56.453Z,4.97
2018-08-09T17:20:28.544Z,3.87
2018-08-09T17:22:57.465Z,3.53
2018-08-09T17:25:26.097Z,3.70
2018-08-09T17:27:54.818Z,3.50
2018-08-09T17:30:24.997Z,4.10
2018-08-09T17:32:53.717Z,3.90
2018-08-09T17:35:22.316Z,3.70
2018-08-09T17:37:51.343Z,4.33
2018-08-09T17:40:28.890Z,3.57
2018-08-09T17:42:58.351Z,3.40
2018-08-09T17:45:31.155Z,3.67
2018-08-09T17:48:00.410Z,3.23
2018-08-09T17:50:29.116Z,3.53
2018-08-09T17:52:59.650Z,3.70
2018-08-09T17:55:28.308Z,3.80
2018-08-09T17:57:57.011Z,3.50
2018-08-09T18:00:27.115Z,3.50
2018-08-09T18:02:57.955Z,4.23
2018-08-09T18:05:27.020Z,3.47
2018-08-09T18:07:56.101Z,3.60
2018-08-09T18:13:21.956Z,3.97
2018-08-09T18:15:50.641Z,3.80
2018-08-09T18:18:19.315Z,4.30
2018-08-09T18:20:47.954Z,3.63
2018-08-09T18:23:16.788Z,4.10
2018-08-09T18:25:45.933Z,3.93
2018-08-09T18:28:14.519Z,4.43
2018-08-09T18:30:43.226Z,4.27
2018-08-09T18:33:11.979Z,4.33
2018-08-09T18:35:40.617Z,3.83
2018-08-09T18:38:09.475Z,4.07
2018-08-09T18:40:38.116Z,3.80
2018-08-09T18:43:07.159Z,4.00
2018-08-09T18:45:35.982Z,4.10
2018-08-09T18:48:04.720Z,4.57
2018-08-09T18:50:33.396Z,4.53
2018-08-09T18:53:02.003Z,4.53
2018-08-09T18:55:30.681Z,4.73
2018-08-09T18:57:59.327Z,4.53
2018-08-09T19:00:29.266Z,4.43
2018-08-09T19:02:58.460Z,4.27
2018-08-09T19:05:27.527Z,4.60
2018-08-09T19:07:56.552Z,3.83
2018-08-09T19:10:27.518Z,4.43
2018-08-09T19:12:56.936Z,4.00
2018-08-09T19:15:25.690Z,4.30
2018-08-09T19:17:54.440Z,4.00
2018-08-09T19:20:25.128Z,4.13
2018-08-09T19:22:53.945Z,4.40
2018-08-09T19:25:23.557Z,4.70
2018-08-09T19:27:52.926Z,4.73
2018-08-09T19:30:23.231Z,4.47
2018-08-09T19:32:52.106Z,4.30
2018-08-09T19:35:21.464Z,4.80
2018-08-09T19:37:50.199Z,4.63
2018-08-09T19:40:21.467Z,4.37
2018-08-09T19:42:50.236Z,4.30
2018-08-09T19:45:19.619Z,4.23
2018-08-09T19:47:48.563Z,5.27
2018-08-09T19:50:19.288Z,5.13
2018-08-09T19:52:47.991Z,4.97
2018-08-09T19:55:21.225Z,4.53
2018-08-09T19:57:50.354Z,5.03
2018-08-09T20:00:21.382Z,5.20
2018-08-09T20:02:50.113Z,5.00
2018-08-09T20:05:18.649Z,5.23
2018-08-09T20:07:47.248Z,5.17
2018-08-09T20:10:16.194Z,4.97
2018-08-09T20:12:45.525Z,5.03
2018-08-09T20:15:16.521Z,5.00
2018-08-09T20:17:45.035Z,5.00
2018-08-09T20:20:14.718Z,5.40
2018-08-09T20:22:43.318Z,5.50
2018-08-09T20:25:12.827Z,5.73
2018-08-09T20:27:41.710Z,6.17
2018-08-09T20:30:11.819Z,5.73
2018-08-09T20:32:40.903Z,6.70
2018-08-09T20:35:13.713Z,6.73
2018-08-09T20:37:43.252Z,6.30
2018-08-09T20:40:12.338Z,6.63
2018-08-09T20:42:41.231Z,6.10
2018-08-09T20:45:11.756Z,6.57
2018-08-09T20:47:40.274Z,6.13
2018-08-09T20:50:12.253Z,6.67
2018-08-09T20:52:41.518Z,6.40
2018-08-09T20:55:10.638Z,7.33
2018-08-09T20:57:40.255Z,6.20
2018-08-09T21:00:12.868Z,6.63
2018-08-09T21:02:41.623Z,6.90
2018-08-09T21:05:15.159Z,6.90
2018-08-09T21:07:43.800Z,6.87
2018-08-09T21:10:12.763Z,6.83
2018-08-09T21:12:41.279Z,7.57
2018-08-09T21:15:09.893Z,6.60
2018-08-09T21:17:38.554Z,7.33
2018-08-09T21:20:07.136Z,6.60
2018-08-09T21:22:35.703Z,7.37
2018-08-09T21:25:04.851Z,7.30
2018-08-09T21:27:33.402Z,7.33
2018-08-09T21:30:02.055Z,6.40
2018-08-09T21:32:30.720Z,7.30
2018-08-09T21:34:59.245Z,7.10
2018-08-09T21:37:27.807Z,6.30
2018-08-09T21:39:56.343Z,6.20
2018-08-09T21:42:25.019Z,7.00
2018-08-09T21:44:53.512Z,7.07
2018-08-09T21:47:22.105Z,6.80
2018-08-09T21:49:50.770Z,6.50
2018-08-09T21:52:19.332Z,6.40
2018-08-09T21:54:47.916Z,6.60
2018-08-09T21:57:16.427Z,7.13
2018-08-09T21:59:45.033Z,7.00
2018-08-09T22:02:13.640Z,6.30
2018-08-09T22:04:47.499Z,7.40
2018-08-09T22:07:21.489Z,6.73
2018-08-09T22:09:55.387Z,7.27
2018-08-09T22:12:29.428Z,5.93
2018-08-09T22:15:03.345Z,6.27
2018-08-09T22:17:37.330Z,5.40
2018-08-09T22:20:11.245Z,5.23
2018-08-09T22:22:40.103Z,5.83
2018-08-09T22:25:09.979Z,4.80
2018-08-09T22:27:38.518Z,4.93
2018-08-09T22:30:09.090Z,4.77
2018-08-09T22:32:37.843Z,4.83
2018-08-09T22:35:06.885Z,4.03
2018-08-09T22:37:35.421Z,4.43
2018-08-09T22:40:04.199Z,3.87
2018-08-09T22:42:32.925Z,3.73
2018-08-09T22:45:01.606Z,3.73
2018-08-09T22:47:30.355Z,3.20
2018-08-09T22:49:59.088Z,2.83
2018-08-09T22:52:27.597Z,2.80
2018-08-09T22:54:56.220Z,2.87
2018-08-09T22:57:24.854Z,2.77
2018-08-09T22:59:53.557Z,2.90
2018-08-09T23:02:22.218Z,2.70
2018-08-09T23:04:50.973Z,2.70
2018-08-09T23:07:19.686Z,2.50
2018-08-09T23:09:48.316Z,2.87
2018-08-09T23:12:16.874Z,2.50
2018-08-09T23:14:45.478Z,2.87
2018-08-09T23:17:14.040Z,2.93
2018-08-09T23:19:42.727Z,2.70
2018-08-09T23:22:11.430Z,3.43
2018-08-09T23:24:40.294Z,2.80
2018-08-09T23:27:08.826Z,2.57
2018-08-09T23:29:37.398Z,3.00
2018-08-09T23:32:06.095Z,3.40
2018-08-09T23:34:34.894Z,3.17
2018-08-09T23:37:03.707Z,3.70
2018-08-09T23:39:32.381Z,3.07
2018-08-09T23:42:00.930Z,3.50
2018-08-09T23:44:29.542Z,2.97
2018-08-09T23:46:58.280Z,3.50
2018-08-09T23:49:26.942Z,3.40
2018-08-09T23:51:55.575Z,3.13
2018-08-09T23:54:24.303Z,3.40
2018-08-09T23:56:52.862Z,3.73
2018-08-09T23:59:21.435Z,3.13
